Homer, AK

12:31 PM AKST on January 26, 2015 (GMT -0900)
KAKHOMER5 | Change Station
CLOSE
Current Station
Personal Weather Station
Location: Homer, AK
Elevation: 1152 ft
Nearby Weather Stations

Elev 1152 ft 59.67 °N, 151.49 °W | Updated 23 seconds ago

Overcast
Overcast
13.4 °F
Feels Like 13 °F
N
0.0
Wind Variable Wind from West
Gusts 0.0 mph

Today
High -- | Low -- °F
--% Chance of Precip.
Yesterday
High -- | Low -- °F
Precip. -- in
9:31 AM 5:06 PM
Waxing Crescent, 47% visible
Pressure 29.96 in
Visibility 10.0 miles
Clouds Few 1500 ft
Mostly Cloudy 7500 ft
Overcast 15000 ft
Windchill 13 °F
Dew Point 7 °F
Humidity 74%
Rainfall 0.00 in
Snow Depth Not available.
UV 0 out of 12
Pollen Not available.
Air Quality Not available.
Flu Activity Not available.
METAR PAHO 262053Z 05006KT 10SM FEW015 BKN075 OVC150 M08/M14 A2996 RMK SLP146 T10831144 51007 VIA AUTODIAL

More Conditions Fewer Conditions

Pressure 29.96 in
Visibility 10.0 miles
Clouds Few 1500 ft
Mostly Cloudy 7500 ft
Overcast 15000 ft
Windchill 13 °F
Dew Point 7 °F
Humidity 74%
Rainfall 0.00 in
Snow Depth Not available.
UV 0 out of 12
Pollen Not available.
Air Quality Not available.
Flu Activity Not available.
METAR PAHO 262053Z 05006KT 10SM FEW015 BKN075 OVC150 M08/M14 A2996 RMK SLP146 T10831144 51007 VIA AUTODIAL

More Conditions Fewer Conditions

10-Day Weather Forecast

Almanac

Astronomy

Jan. 26, 2015 Rise Set
Actual Time
Civil Twilight
Nautical Twilight
Astronomical Twilight
Moon
Length of Visible Light
Length of Day
Tomorrow will be .
, % of the Moon is Illuminated

Today's Extremes

State Highs State Lows

Community

WunderPhotos

Upload Photos

1,790,367 photos uploaded!

WunderBlogs® & News

Nearby

Air Quality

  Air Quality AQ Index Pollutant
Not available.

Snow Depth

Station Depth Elevation

Earthquake Activity

City Distance Mag. Time & Date
Minimum magnitude displayed is 2.5.

Coastal Water Temperatures

Place Temperature

Nearby Weather Stations